sensor_id;sensor_type;location;lat;lon;timestamp;P1;durP1;ratioP1;P2;durP2;ratioP2
35084;SDS011;21267;51.032;6.998;2023-01-23T00:03:52;32.67;;;20.58;;
35084;SDS011;21267;51.032;6.998;2023-01-23T00:06:20;29.75;;;19.17;;
35084;SDS011;21267;51.032;6.998;2023-01-23T00:08:47;29.55;;;19.45;;
35084;SDS011;21267;51.032;6.998;2023-01-23T00:11:24;29.42;;;19.98;;
35084;SDS011;21267;51.032;6.998;2023-01-23T00:13:52;28.77;;;18.95;;
35084;SDS011;21267;51.032;6.998;2023-01-23T00:16:20;24.85;;;15.30;;
35084;SDS011;21267;51.032;6.998;2023-01-23T00:18:48;29.33;;;19.15;;
35084;SDS011;21267;51.032;6.998;2023-01-23T00:21:17;27.85;;;18.75;;
35084;SDS011;21267;51.032;6.998;2023-01-23T00:23:46;30.88;;;20.55;;
35084;SDS011;21267;51.032;6.998;2023-01-23T00:26:18;29.10;;;20.02;;
35084;SDS011;21267;51.032;6.998;2023-01-23T00:28:49;28.30;;;18.35;;
35084;SDS011;21267;51.032;6.998;2023-01-23T00:31:21;30.10;;;18.97;;
35084;SDS011;21267;51.032;6.998;2023-01-23T00:33:54;32.10;;;19.83;;
35084;SDS011;21267;51.032;6.998;2023-01-23T00:36:23;28.20;;;19.33;;
35084;SDS011;21267;51.032;6.998;2023-01-23T00:38:50;20.48;;;13.93;;
35084;SDS011;21267;51.032;6.998;2023-01-23T00:41:16;28.48;;;19.55;;
35084;SDS011;21267;51.032;6.998;2023-01-23T00:43:43;29.98;;;20.63;;
35084;SDS011;21267;51.032;6.998;2023-01-23T00:46:12;28.33;;;19.15;;
35084;SDS011;21267;51.032;6.998;2023-01-23T00:48:39;26.42;;;18.70;;
35084;SDS011;21267;51.032;6.998;2023-01-23T00:51:06;29.88;;;19.73;;
35084;SDS011;21267;51.032;6.998;2023-01-23T00:53:33;27.63;;;18.15;;
35084;SDS011;21267;51.032;6.998;2023-01-23T00:55:59;30.65;;;20.25;;
35084;SDS011;21267;51.032;6.998;2023-01-23T01:01:38;29.75;;;20.10;;
35084;SDS011;21267;51.032;6.998;2023-01-23T01:04:05;22.93;;;15.67;;
35084;SDS011;21267;51.032;6.998;2023-01-23T01:06:32;32.97;;;20.70;;
35084;SDS011;21267;51.032;6.998;2023-01-23T01:08:58;28.35;;;19.40;;
35084;SDS011;21267;51.032;6.998;2023-01-23T01:11:25;33.80;;;20.83;;
35084;SDS011;21267;51.032;6.998;2023-01-23T01:13:52;26.45;;;19.13;;
35084;SDS011;21267;51.032;6.998;2023-01-23T01:16:19;29.05;;;20.30;;
35084;SDS011;21267;51.032;6.998;2023-01-23T01:18:46;29.02;;;18.98;;
35084;SDS011;21267;51.032;6.998;2023-01-23T01:21:13;27.23;;;18.40;;
35084;SDS011;21267;51.032;6.998;2023-01-23T01:23:40;28.75;;;20.20;;
35084;SDS011;21267;51.032;6.998;2023-01-23T01:26:07;29.90;;;20.52;;
35084;SDS011;21267;51.032;6.998;2023-01-23T01:28:34;28.90;;;19.00;;
35084;SDS011;21267;51.032;6.998;2023-01-23T01:31:05;30.70;;;20.50;;
35084;SDS011;21267;51.032;6.998;2023-01-23T01:33:33;29.20;;;19.23;;
35084;SDS011;21267;51.032;6.998;2023-01-23T01:36:00;29.25;;;19.00;;
35084;SDS011;21267;51.032;6.998;2023-01-23T01:38:27;27.90;;;19.67;;
35084;SDS011;21267;51.032;6.998;2023-01-23T01:40:53;27.08;;;18.70;;
35084;SDS011;21267;51.032;6.998;2023-01-23T01:43:23;27.38;;;17.45;;
35084;SDS011;21267;51.032;6.998;2023-01-23T01:48:52;29.73;;;20.17;;
35084;SDS011;21267;51.032;6.998;2023-01-23T01:51:41;28.77;;;20.42;;
35084;SDS011;21267;51.032;6.998;2023-01-23T01:57:01;29.27;;;20.45;;
35084;SDS011;21267;51.032;6.998;2023-01-23T01:59:45;30.55;;;19.92;;
35084;SDS011;21267;51.032;6.998;2023-01-23T02:02:16;29.08;;;20.40;;
35084;SDS011;21267;51.032;6.998;2023-01-23T02:04:50;27.77;;;19.92;;
35084;SDS011;21267;51.032;6.998;2023-01-23T02:07:21;30.80;;;19.83;;
35084;SDS011;21267;51.032;6.998;2023-01-23T02:09:52;29.50;;;19.95;;
35084;SDS011;21267;51.032;6.998;2023-01-23T02:12:19;26.95;;;19.38;;
35084;SDS011;21267;51.032;6.998;2023-01-23T02:14:46;28.13;;;18.60;;
35084;SDS011;21267;51.032;6.998;2023-01-23T02:17:12;29.45;;;19.42;;
35084;SDS011;21267;51.032;6.998;2023-01-23T02:19:43;26.02;;;19.00;;
35084;SDS011;21267;51.032;6.998;2023-01-23T02:25:15;28.97;;;19.33;;
35084;SDS011;21267;51.032;6.998;2023-01-23T02:27:57;28.23;;;19.00;;
35084;SDS011;21267;51.032;6.998;2023-01-23T02:30:24;28.52;;;18.77;;
35084;SDS011;21267;51.032;6.998;2023-01-23T02:32:51;29.77;;;20.80;;
35084;SDS011;21267;51.032;6.998;2023-01-23T02:35:22;28.23;;;19.17;;
35084;SDS011;21267;51.032;6.998;2023-01-23T02:37:53;29.60;;;20.60;;
35084;SDS011;21267;51.032;6.998;2023-01-23T02:40:31;30.23;;;20.27;;
35084;SDS011;21267;51.032;6.998;2023-01-23T02:43:03;30.40;;;20.17;;
35084;SDS011;21267;51.032;6.998;2023-01-23T02:45:31;28.30;;;19.85;;
35084;SDS011;21267;51.032;6.998;2023-01-23T02:47:58;30.07;;;19.73;;
35084;SDS011;21267;51.032;6.998;2023-01-23T02:50:27;27.95;;;19.90;;
35084;SDS011;21267;51.032;6.998;2023-01-23T02:52:54;28.33;;;19.92;;
35084;SDS011;21267;51.032;6.998;2023-01-23T02:55:23;27.45;;;19.45;;
35084;SDS011;21267;51.032;6.998;2023-01-23T02:57:58;29.45;;;19.83;;
35084;SDS011;21267;51.032;6.998;2023-01-23T03:00:45;29.83;;;19.13;;
35084;SDS011;21267;51.032;6.998;2023-01-23T03:03:12;28.80;;;19.70;;
35084;SDS011;21267;51.032;6.998;2023-01-23T03:05:39;28.35;;;19.10;;
35084;SDS011;21267;51.032;6.998;2023-01-23T03:08:05;28.92;;;19.92;;
35084;SDS011;21267;51.032;6.998;2023-01-23T03:10:32;30.15;;;19.95;;
35084;SDS011;21267;51.032;6.998;2023-01-23T03:12:58;31.42;;;20.77;;
35084;SDS011;21267;51.032;6.998;2023-01-23T03:15:27;27.90;;;19.38;;
35084;SDS011;21267;51.032;6.998;2023-01-23T03:17:54;26.47;;;15.93;;
35084;SDS011;21267;51.032;6.998;2023-01-23T03:20:21;31.70;;;21.00;;
35084;SDS011;21267;51.032;6.998;2023-01-23T03:22:53;31.33;;;20.58;;
35084;SDS011;21267;51.032;6.998;2023-01-23T03:25:20;31.75;;;20.10;;
35084;SDS011;21267;51.032;6.998;2023-01-23T03:27:49;29.23;;;19.77;;
35084;SDS011;21267;51.032;6.998;2023-01-23T03:30:15;30.08;;;20.85;;
35084;SDS011;21267;51.032;6.998;2023-01-23T03:32:43;32.07;;;20.73;;
35084;SDS011;21267;51.032;6.998;2023-01-23T03:35:10;28.77;;;17.50;;
35084;SDS011;21267;51.032;6.998;2023-01-23T03:37:45;27.70;;;17.15;;
35084;SDS011;21267;51.032;6.998;2023-01-23T03:40:17;31.10;;;19.90;;
35084;SDS011;21267;51.032;6.998;2023-01-23T03:43:07;31.60;;;20.52;;
35084;SDS011;21267;51.032;6.998;2023-01-23T03:45:34;31.60;;;21.17;;
35084;SDS011;21267;51.032;6.998;2023-01-23T03:48:01;33.75;;;21.52;;
35084;SDS011;21267;51.032;6.998;2023-01-23T03:50:27;35.53;;;21.58;;
35084;SDS011;21267;51.032;6.998;2023-01-23T03:52:54;33.90;;;21.50;;
35084;SDS011;21267;51.032;6.998;2023-01-23T03:55:20;32.60;;;21.13;;
35084;SDS011;21267;51.032;6.998;2023-01-23T03:57:47;30.00;;;20.80;;
35084;SDS011;21267;51.032;6.998;2023-01-23T04:00:13;31.05;;;20.13;;
35084;SDS011;21267;51.032;6.998;2023-01-23T04:02:42;32.72;;;20.45;;
35084;SDS011;21267;51.032;6.998;2023-01-23T04:05:08;32.63;;;19.73;;
35084;SDS011;21267;51.032;6.998;2023-01-23T04:07:35;29.42;;;19.35;;
35084;SDS011;21267;51.032;6.998;2023-01-23T04:10:02;31.45;;;20.17;;
35084;SDS011;21267;51.032;6.998;2023-01-23T04:12:28;31.50;;;19.83;;
35084;SDS011;21267;51.032;6.998;2023-01-23T04:14:55;33.70;;;20.75;;
35084;SDS011;21267;51.032;6.998;2023-01-23T04:17:21;29.67;;;20.35;;
35084;SDS011;21267;51.032;6.998;2023-01-23T04:19:48;33.20;;;21.08;;
35084;SDS011;21267;51.032;6.998;2023-01-23T04:22:14;31.58;;;20.65;;
35084;SDS011;21267;51.032;6.998;2023-01-23T04:24:41;29.20;;;19.80;;
35084;SDS011;21267;51.032;6.998;2023-01-23T04:27:07;28.05;;;17.33;;
35084;SDS011;21267;51.032;6.998;2023-01-23T04:29:34;30.48;;;19.75;;
35084;SDS011;21267;51.032;6.998;2023-01-23T04:32:01;30.15;;;20.15;;
35084;SDS011;21267;51.032;6.998;2023-01-23T04:34:27;29.05;;;19.58;;
35084;SDS011;21267;51.032;6.998;2023-01-23T04:36:54;30.20;;;19.15;;
35084;SDS011;21267;51.032;6.998;2023-01-23T04:39:20;31.70;;;21.65;;
35084;SDS011;21267;51.032;6.998;2023-01-23T04:41:47;28.38;;;19.67;;
35084;SDS011;21267;51.032;6.998;2023-01-23T04:44:15;31.35;;;20.55;;
35084;SDS011;21267;51.032;6.998;2023-01-23T04:46:48;32.25;;;21.08;;
35084;SDS011;21267;51.032;6.998;2023-01-23T04:49:18;30.92;;;20.80;;
35084;SDS011;21267;51.032;6.998;2023-01-23T04:51:46;28.80;;;19.42;;
35084;SDS011;21267;51.032;6.998;2023-01-23T04:54:13;30.85;;;20.25;;
35084;SDS011;21267;51.032;6.998;2023-01-23T04:56:40;29.50;;;18.95;;
35084;SDS011;21267;51.032;6.998;2023-01-23T04:59:06;30.38;;;18.92;;
35084;SDS011;21267;51.032;6.998;2023-01-23T05:01:33;32.10;;;20.60;;
35084;SDS011;21267;51.032;6.998;2023-01-23T05:04:03;30.48;;;19.85;;
35084;SDS011;21267;51.032;6.998;2023-01-23T05:06:30;39.40;;;24.20;;
35084;SDS011;21267;51.032;6.998;2023-01-23T05:08:57;34.03;;;20.63;;
35084;SDS011;21267;51.032;6.998;2023-01-23T05:11:24;32.65;;;21.10;;
35084;SDS011;21267;51.032;6.998;2023-01-23T05:13:50;34.10;;;20.63;;
35084;SDS011;21267;51.032;6.998;2023-01-23T05:16:17;37.80;;;21.52;;
35084;SDS011;21267;51.032;6.998;2023-01-23T05:18:43;33.85;;;20.98;;
35084;SDS011;21267;51.032;6.998;2023-01-23T05:21:10;32.30;;;19.63;;
35084;SDS011;21267;51.032;6.998;2023-01-23T05:23:37;34.83;;;21.33;;
35084;SDS011;21267;51.032;6.998;2023-01-23T05:26:04;31.25;;;20.65;;
35084;SDS011;21267;51.032;6.998;2023-01-23T05:28:36;33.35;;;20.55;;
35084;SDS011;21267;51.032;6.998;2023-01-23T05:31:03;32.55;;;21.73;;
35084;SDS011;21267;51.032;6.998;2023-01-23T05:33:29;31.38;;;21.02;;
35084;SDS011;21267;51.032;6.998;2023-01-23T05:35:59;30.67;;;20.17;;
35084;SDS011;21267;51.032;6.998;2023-01-23T05:38:26;30.13;;;20.00;;
35084;SDS011;21267;51.032;6.998;2023-01-23T05:40:52;31.48;;;20.92;;
35084;SDS011;21267;51.032;6.998;2023-01-23T05:43:19;30.75;;;19.42;;
35084;SDS011;21267;51.032;6.998;2023-01-23T05:45:46;33.25;;;20.70;;
35084;SDS011;21267;51.032;6.998;2023-01-23T05:48:12;34.25;;;20.95;;
35084;SDS011;21267;51.032;6.998;2023-01-23T05:50:39;31.58;;;20.13;;
35084;SDS011;21267;51.032;6.998;2023-01-23T05:53:06;32.57;;;21.17;;
35084;SDS011;21267;51.032;6.998;2023-01-23T05:55:32;32.17;;;20.38;;
35084;SDS011;21267;51.032;6.998;2023-01-23T05:57:59;29.02;;;19.65;;
35084;SDS011;21267;51.032;6.998;2023-01-23T06:00:25;33.50;;;20.27;;
35084;SDS011;21267;51.032;6.998;2023-01-23T06:02:52;32.55;;;20.77;;
35084;SDS011;21267;51.032;6.998;2023-01-23T06:05:19;31.23;;;20.05;;
35084;SDS011;21267;51.032;6.998;2023-01-23T06:07:45;31.63;;;19.23;;
35084;SDS011;21267;51.032;6.998;2023-01-23T06:10:12;29.63;;;19.23;;
35084;SDS011;21267;51.032;6.998;2023-01-23T06:12:38;29.95;;;20.48;;
35084;SDS011;21267;51.032;6.998;2023-01-23T06:15:05;30.65;;;20.20;;
35084;SDS011;21267;51.032;6.998;2023-01-23T06:17:37;32.75;;;20.33;;
35084;SDS011;21267;51.032;6.998;2023-01-23T06:20:04;30.02;;;17.90;;
35084;SDS011;21267;51.032;6.998;2023-01-23T06:22:31;28.45;;;18.23;;
35084;SDS011;21267;51.032;6.998;2023-01-23T06:24:57;34.67;;;21.48;;
35084;SDS011;21267;51.032;6.998;2023-01-23T06:27:24;33.88;;;22.13;;
35084;SDS011;21267;51.032;6.998;2023-01-23T06:29:50;31.90;;;19.73;;
35084;SDS011;21267;51.032;6.998;2023-01-23T06:32:17;28.55;;;18.40;;
35084;SDS011;21267;51.032;6.998;2023-01-23T06:34:44;29.05;;;18.45;;
35084;SDS011;21267;51.032;6.998;2023-01-23T06:37:10;29.95;;;18.08;;
35084;SDS011;21267;51.032;6.998;2023-01-23T06:39:37;24.90;;;17.63;;
35084;SDS011;21267;51.032;6.998;2023-01-23T06:42:03;28.35;;;18.40;;
35084;SDS011;21267;51.032;6.998;2023-01-23T06:44:35;32.20;;;17.88;;
35084;SDS011;21267;51.032;6.998;2023-01-23T06:47:03;30.58;;;18.27;;
35084;SDS011;21267;51.032;6.998;2023-01-23T06:49:30;30.05;;;19.00;;
35084;SDS011;21267;51.032;6.998;2023-01-23T06:51:59;25.48;;;16.23;;
35084;SDS011;21267;51.032;6.998;2023-01-23T06:54:26;22.40;;;16.23;;
35084;SDS011;21267;51.032;6.998;2023-01-23T06:56:53;24.42;;;15.07;;
35084;SDS011;21267;51.032;6.998;2023-01-23T06:59:22;23.70;;;15.63;;
35084;SDS011;21267;51.032;6.998;2023-01-23T07:01:48;21.05;;;15.02;;
35084;SDS011;21267;51.032;6.998;2023-01-23T07:04:15;21.42;;;14.98;;
35084;SDS011;21267;51.032;6.998;2023-01-23T07:06:42;20.08;;;14.27;;
35084;SDS011;21267;51.032;6.998;2023-01-23T07:09:10;20.02;;;13.85;;
35084;SDS011;21267;51.032;6.998;2023-01-23T07:11:40;18.42;;;13.25;;
35084;SDS011;21267;51.032;6.998;2023-01-23T07:14:07;18.70;;;12.07;;
35084;SDS011;21267;51.032;6.998;2023-01-23T07:16:33;21.05;;;14.75;;
35084;SDS011;21267;51.032;6.998;2023-01-23T07:19:01;20.65;;;15.32;;
35084;SDS011;21267;51.032;6.998;2023-01-23T07:21:31;24.42;;;15.25;;
35084;SDS011;21267;51.032;6.998;2023-01-23T07:23:59;16.05;;;9.55;;
35084;SDS011;21267;51.032;6.998;2023-01-23T07:26:25;16.00;;;10.65;;
35084;SDS011;21267;51.032;6.998;2023-01-23T07:28:52;20.10;;;13.98;;
35084;SDS011;21267;51.032;6.998;2023-01-23T07:33:38;21.67;;;15.85;;
35084;SDS011;21267;51.032;6.998;2023-01-23T07:36:08;21.52;;;14.52;;
35084;SDS011;21267;51.032;6.998;2023-01-23T07:38:39;21.08;;;15.10;;
35084;SDS011;21267;51.032;6.998;2023-01-23T07:41:06;19.87;;;12.83;;
35084;SDS011;21267;51.032;6.998;2023-01-23T07:43:33;24.83;;;17.13;;
35084;SDS011;21267;51.032;6.998;2023-01-23T07:45:59;23.23;;;16.20;;
35084;SDS011;21267;51.032;6.998;2023-01-23T07:48:26;23.15;;;16.05;;
35084;SDS011;21267;51.032;6.998;2023-01-23T07:50:54;20.65;;;15.20;;
35084;SDS011;21267;51.032;6.998;2023-01-23T07:53:20;18.42;;;12.43;;
35084;SDS011;21267;51.032;6.998;2023-01-23T07:55:47;16.27;;;9.30;;
35084;SDS011;21267;51.032;6.998;2023-01-23T07:58:17;25.35;;;16.02;;
35084;SDS011;21267;51.032;6.998;2023-01-23T08:00:43;24.33;;;17.40;;
35084;SDS011;21267;51.032;6.998;2023-01-23T08:03:11;24.95;;;16.48;;
35084;SDS011;21267;51.032;6.998;2023-01-23T08:05:38;24.40;;;16.67;;
35084;SDS011;21267;51.032;6.998;2023-01-23T08:08:08;21.98;;;16.30;;
35084;SDS011;21267;51.032;6.998;2023-01-23T08:10:39;24.63;;;17.42;;
35084;SDS011;21267;51.032;6.998;2023-01-23T08:13:08;26.73;;;18.00;;
35084;SDS011;21267;51.032;6.998;2023-01-23T08:15:35;24.40;;;16.80;;
35084;SDS011;21267;51.032;6.998;2023-01-23T08:18:03;23.35;;;17.42;;
35084;SDS011;21267;51.032;6.998;2023-01-23T08:20:30;23.67;;;17.33;;
35084;SDS011;21267;51.032;6.998;2023-01-23T08:22:56;25.85;;;18.33;;
35084;SDS011;21267;51.032;6.998;2023-01-23T08:25:24;25.08;;;16.35;;
35084;SDS011;21267;51.032;6.998;2023-01-23T08:27:50;28.25;;;19.38;;
35084;SDS011;21267;51.032;6.998;2023-01-23T08:30:17;25.42;;;15.52;;
35084;SDS011;21267;51.032;6.998;2023-01-23T08:32:44;18.90;;;13.60;;
35084;SDS011;21267;51.032;6.998;2023-01-23T08:35:12;27.03;;;18.20;;
35084;SDS011;21267;51.032;6.998;2023-01-23T08:37:39;27.75;;;17.40;;
35084;SDS011;21267;51.032;6.998;2023-01-23T08:40:07;27.58;;;18.23;;
35084;SDS011;21267;51.032;6.998;2023-01-23T08:42:34;20.03;;;13.33;;
35084;SDS011;21267;51.032;6.998;2023-01-23T08:45:01;26.83;;;18.77;;
35084;SDS011;21267;51.032;6.998;2023-01-23T08:47:27;24.88;;;16.05;;
35084;SDS011;21267;51.032;6.998;2023-01-23T08:49:54;23.77;;;16.25;;
35084;SDS011;21267;51.032;6.998;2023-01-23T08:52:21;27.27;;;19.20;;
35084;SDS011;21267;51.032;6.998;2023-01-23T08:54:48;23.80;;;15.77;;
35084;SDS011;21267;51.032;6.998;2023-01-23T08:57:15;21.77;;;15.10;;
35084;SDS011;21267;51.032;6.998;2023-01-23T08:59:41;30.70;;;19.60;;
35084;SDS011;21267;51.032;6.998;2023-01-23T09:02:10;28.70;;;18.05;;
35084;SDS011;21267;51.032;6.998;2023-01-23T09:04:38;30.70;;;20.75;;
35084;SDS011;21267;51.032;6.998;2023-01-23T09:07:05;28.73;;;19.48;;
35084;SDS011;21267;51.032;6.998;2023-01-23T09:09:31;27.73;;;16.70;;
35084;SDS011;21267;51.032;6.998;2023-01-23T09:11:58;28.08;;;17.58;;
35084;SDS011;21267;51.032;6.998;2023-01-23T09:14:25;28.67;;;18.30;;
35084;SDS011;21267;51.032;6.998;2023-01-23T09:16:51;26.10;;;17.67;;
35084;SDS011;21267;51.032;6.998;2023-01-23T09:19:18;22.85;;;13.27;;
35084;SDS011;21267;51.032;6.998;2023-01-23T09:21:44;23.52;;;15.40;;
35084;SDS011;21267;51.032;6.998;2023-01-23T09:24:11;27.45;;;16.73;;
35084;SDS011;21267;51.032;6.998;2023-01-23T09:26:38;23.17;;;15.63;;
35084;SDS011;21267;51.032;6.998;2023-01-23T09:29:04;26.27;;;18.23;;
35084;SDS011;21267;51.032;6.998;2023-01-23T09:31:31;24.05;;;17.52;;
35084;SDS011;21267;51.032;6.998;2023-01-23T09:33:57;25.83;;;18.55;;
35084;SDS011;21267;51.032;6.998;2023-01-23T09:36:24;22.52;;;12.95;;
35084;SDS011;21267;51.032;6.998;2023-01-23T09:39:07;24.13;;;17.42;;
35084;SDS011;21267;51.032;6.998;2023-01-23T09:41:34;23.65;;;15.10;;
35084;SDS011;21267;51.032;6.998;2023-01-23T09:47:12;23.23;;;14.97;;
35084;SDS011;21267;51.032;6.998;2023-01-23T09:49:48;23.20;;;16.13;;
35084;SDS011;21267;51.032;6.998;2023-01-23T09:52:23;22.35;;;15.52;;
35084;SDS011;21267;51.032;6.998;2023-01-23T09:54:54;23.83;;;16.05;;
35084;SDS011;21267;51.032;6.998;2023-01-23T09:57:27;22.90;;;15.80;;
35084;SDS011;21267;51.032;6.998;2023-01-23T10:00:13;21.35;;;13.93;;
35084;SDS011;21267;51.032;6.998;2023-01-23T10:02:46;20.67;;;14.90;;
35084;SDS011;21267;51.032;6.998;2023-01-23T10:05:13;23.38;;;16.00;;
35084;SDS011;21267;51.032;6.998;2023-01-23T10:07:54;22.77;;;15.88;;
35084;SDS011;21267;51.032;6.998;2023-01-23T10:19:56;19.23;;;11.73;;
35084;SDS011;21267;51.032;6.998;2023-01-23T10:22:33;21.95;;;13.48;;
35084;SDS011;21267;51.032;6.998;2023-01-23T10:25:19;19.50;;;14.45;;
35084;SDS011;21267;51.032;6.998;2023-01-23T10:27:49;23.63;;;15.45;;
35084;SDS011;21267;51.032;6.998;2023-01-23T10:30:21;24.55;;;15.50;;
35084;SDS011;21267;51.032;6.998;2023-01-23T10:32:55;19.85;;;13.10;;
35084;SDS011;21267;51.032;6.998;2023-01-23T10:35:30;22.15;;;14.40;;
35084;SDS011;21267;51.032;6.998;2023-01-23T10:40:56;21.55;;;15.40;;
35084;SDS011;21267;51.032;6.998;2023-01-23T10:43:44;22.97;;;14.27;;
35084;SDS011;21267;51.032;6.998;2023-01-23T10:46:21;21.80;;;14.57;;
35084;SDS011;21267;51.032;6.998;2023-01-23T10:48:54;21.60;;;14.73;;
35084;SDS011;21267;51.032;6.998;2023-01-23T10:56:58;20.10;;;14.38;;
35084;SDS011;21267;51.032;6.998;2023-01-23T11:02:26;22.55;;;16.00;;
35084;SDS011;21267;51.032;6.998;2023-01-23T11:04:54;19.85;;;14.80;;
35084;SDS011;21267;51.032;6.998;2023-01-23T11:07:22;21.10;;;14.85;;
35084;SDS011;21267;51.032;6.998;2023-01-23T11:09:58;23.48;;;15.57;;
35084;SDS011;21267;51.032;6.998;2023-01-23T11:12:51;21.88;;;15.23;;
35084;SDS011;21267;51.032;6.998;2023-01-23T11:17:47;20.80;;;15.48;;
35084;SDS011;21267;51.032;6.998;2023-01-23T11:20:22;20.42;;;14.77;;
35084;SDS011;21267;51.032;6.998;2023-01-23T11:25:54;18.48;;;11.77;;
35084;SDS011;21267;51.032;6.998;2023-01-23T11:28:23;18.45;;;13.32;;
35084;SDS011;21267;51.032;6.998;2023-01-23T11:39:17;12.68;;;9.52;;
35084;SDS011;21267;51.032;6.998;2023-01-23T11:41:56;13.63;;;10.93;;
35084;SDS011;21267;51.032;6.998;2023-01-23T11:44:23;15.02;;;10.07;;
35084;SDS011;21267;51.032;6.998;2023-01-23T12:01:04;11.20;;;8.20;;
35084;SDS011;21267;51.032;6.998;2023-01-23T12:06:32;15.32;;;12.13;;
35084;SDS011;21267;51.032;6.998;2023-01-23T12:11:37;17.53;;;12.17;;
35084;SDS011;21267;51.032;6.998;2023-01-23T12:14:29;17.70;;;11.68;;
35084;SDS011;21267;51.032;6.998;2023-01-23T12:20:57;15.38;;;9.88;;
35084;SDS011;21267;51.032;6.998;2023-01-23T12:28:42;12.52;;;8.15;;
35084;SDS011;21267;51.032;6.998;2023-01-23T12:45:20;9.18;;;5.70;;
35084;SDS011;21267;51.032;6.998;2023-01-23T12:53:25;4.88;;;4.18;;
35084;SDS011;21267;51.032;6.998;2023-01-23T12:58:29;9.90;;;5.60;;
35084;SDS011;21267;51.032;6.998;2023-01-23T13:04:08;7.80;;;5.18;;
35084;SDS011;21267;51.032;6.998;2023-01-23T13:07:13;8.85;;;5.50;;
35084;SDS011;21267;51.032;6.998;2023-01-23T13:12:54;9.57;;;5.18;;
35084;SDS011;21267;51.032;6.998;2023-01-23T13:15:22;8.05;;;5.28;;
35084;SDS011;21267;51.032;6.998;2023-01-23T13:18:14;10.48;;;6.68;;
35084;SDS011;21267;51.032;6.998;2023-01-23T13:20:57;9.70;;;7.10;;
35084;SDS011;21267;51.032;6.998;2023-01-23T13:23:43;8.48;;;6.10;;
35084;SDS011;21267;51.032;6.998;2023-01-23T13:28:51;9.35;;;6.47;;
35084;SDS011;21267;51.032;6.998;2023-01-23T13:33:53;11.40;;;7.50;;
35084;SDS011;21267;51.032;6.998;2023-01-23T13:36:35;12.38;;;8.18;;
35084;SDS011;21267;51.032;6.998;2023-01-23T13:41:42;11.48;;;7.53;;
35084;SDS011;21267;51.032;6.998;2023-01-23T13:52:39;14.65;;;9.48;;
35084;SDS011;21267;51.032;6.998;2023-01-23T13:55:41;19.38;;;10.82;;
35084;SDS011;21267;51.032;6.998;2023-01-23T13:58:42;16.48;;;11.35;;
35084;SDS011;21267;51.032;6.998;2023-01-23T14:01:23;14.98;;;11.10;;
35084;SDS011;21267;51.032;6.998;2023-01-23T14:04:25;15.57;;;10.75;;
35084;SDS011;21267;51.032;6.998;2023-01-23T14:07:26;13.23;;;10.38;;
35084;SDS011;21267;51.032;6.998;2023-01-23T14:10:28;15.55;;;12.55;;
35084;SDS011;21267;51.032;6.998;2023-01-23T14:13:14;18.38;;;10.80;;
35084;SDS011;21267;51.032;6.998;2023-01-23T15:36:45;20.73;;;14.88;;
35084;SDS011;21267;51.032;6.998;2023-01-23T15:39:12;16.45;;;11.80;;
35084;SDS011;21267;51.032;6.998;2023-01-23T15:41:45;15.52;;;9.75;;
35084;SDS011;21267;51.032;6.998;2023-01-23T15:44:15;16.40;;;13.27;;
35084;SDS011;21267;51.032;6.998;2023-01-23T15:46:44;19.42;;;14.00;;
35084;SDS011;21267;51.032;6.998;2023-01-23T15:49:11;16.42;;;12.43;;
35084;SDS011;21267;51.032;6.998;2023-01-23T15:51:51;20.05;;;14.48;;
35084;SDS011;21267;51.032;6.998;2023-01-23T15:54:21;18.73;;;14.25;;
35084;SDS011;21267;51.032;6.998;2023-01-23T15:56:51;16.60;;;11.82;;
35084;SDS011;21267;51.032;6.998;2023-01-23T15:59:32;18.17;;;13.02;;
35084;SDS011;21267;51.032;6.998;2023-01-23T16:01:59;17.67;;;12.65;;
35084;SDS011;21267;51.032;6.998;2023-01-23T16:04:27;20.38;;;14.40;;
35084;SDS011;21267;51.032;6.998;2023-01-23T16:06:53;18.23;;;13.80;;
35084;SDS011;21267;51.032;6.998;2023-01-23T16:09:21;19.02;;;12.18;;
35084;SDS011;21267;51.032;6.998;2023-01-23T16:11:53;18.60;;;13.15;;
35084;SDS011;21267;51.032;6.998;2023-01-23T16:14:19;17.77;;;13.18;;
35084;SDS011;21267;51.032;6.998;2023-01-23T16:16:46;18.60;;;13.55;;
35084;SDS011;21267;51.032;6.998;2023-01-23T16:19:13;18.25;;;13.80;;
35084;SDS011;21267;51.032;6.998;2023-01-23T16:21:39;18.17;;;13.02;;
35084;SDS011;21267;51.032;6.998;2023-01-23T16:24:21;19.02;;;14.00;;
35084;SDS011;21267;51.032;6.998;2023-01-23T16:27:03;18.67;;;13.25;;
35084;SDS011;21267;51.032;6.998;2023-01-23T16:29:43;18.85;;;12.90;;
35084;SDS011;21267;51.032;6.998;2023-01-23T16:32:24;18.20;;;13.32;;
35084;SDS011;21267;51.032;6.998;2023-01-23T16:34:58;19.75;;;13.25;;
35084;SDS011;21267;51.032;6.998;2023-01-23T16:37:24;16.85;;;12.45;;
35084;SDS011;21267;51.032;6.998;2023-01-23T16:39:51;16.50;;;10.18;;
35084;SDS011;21267;51.032;6.998;2023-01-23T16:42:31;16.52;;;11.27;;
35084;SDS011;21267;51.032;6.998;2023-01-23T16:45:16;12.82;;;9.05;;
35084;SDS011;21267;51.032;6.998;2023-01-23T16:47:59;14.67;;;10.83;;
35084;SDS011;21267;51.032;6.998;2023-01-23T16:50:40;16.30;;;12.93;;
35084;SDS011;21267;51.032;6.998;2023-01-23T16:53:30;15.05;;;10.77;;
35084;SDS011;21267;51.032;6.998;2023-01-23T16:56:05;21.05;;;13.85;;
35084;SDS011;21267;51.032;6.998;2023-01-23T16:58:34;17.70;;;10.98;;
35084;SDS011;21267;51.032;6.998;2023-01-23T17:01:07;18.75;;;12.93;;
35084;SDS011;21267;51.032;6.998;2023-01-23T17:03:41;17.00;;;12.57;;
35084;SDS011;21267;51.032;6.998;2023-01-23T17:06:12;17.95;;;13.57;;
35084;SDS011;21267;51.032;6.998;2023-01-23T17:08:41;19.20;;;14.85;;
35084;SDS011;21267;51.032;6.998;2023-01-23T17:11:09;17.80;;;13.40;;
35084;SDS011;21267;51.032;6.998;2023-01-23T17:13:42;18.52;;;13.38;;
35084;SDS011;21267;51.032;6.998;2023-01-23T17:16:09;17.67;;;11.45;;
35084;SDS011;21267;51.032;6.998;2023-01-23T17:18:51;17.40;;;13.02;;
35084;SDS011;21267;51.032;6.998;2023-01-23T17:21:19;24.85;;;15.88;;
35084;SDS011;21267;51.032;6.998;2023-01-23T17:23:49;19.92;;;14.48;;
35084;SDS011;21267;51.032;6.998;2023-01-23T17:26:29;21.27;;;13.27;;
35084;SDS011;21267;51.032;6.998;2023-01-23T17:29:09;18.00;;;13.02;;
35084;SDS011;21267;51.032;6.998;2023-01-23T17:31:50;16.50;;;12.35;;
35084;SDS011;21267;51.032;6.998;2023-01-23T17:34:24;16.70;;;12.90;;
35084;SDS011;21267;51.032;6.998;2023-01-23T17:36:52;16.05;;;11.68;;
35084;SDS011;21267;51.032;6.998;2023-01-23T17:39:20;17.42;;;13.30;;
35084;SDS011;21267;51.032;6.998;2023-01-23T17:41:48;18.95;;;13.60;;
35084;SDS011;21267;51.032;6.998;2023-01-23T17:44:16;17.25;;;12.88;;
35084;SDS011;21267;51.032;6.998;2023-01-23T17:46:43;15.18;;;11.55;;
35084;SDS011;21267;51.032;6.998;2023-01-23T17:49:27;19.08;;;13.23;;
35084;SDS011;21267;51.032;6.998;2023-01-23T17:51:55;23.73;;;13.02;;
35084;SDS011;21267;51.032;6.998;2023-01-23T17:54:23;14.50;;;10.48;;
35084;SDS011;21267;51.032;6.998;2023-01-23T17:57:06;16.48;;;10.82;;
35084;SDS011;21267;51.032;6.998;2023-01-23T17:59:46;12.70;;;8.45;;
35084;SDS011;21267;51.032;6.998;2023-01-23T18:02:27;12.95;;;9.02;;
35084;SDS011;21267;51.032;6.998;2023-01-23T18:05:10;13.68;;;10.57;;
35084;SDS011;21267;51.032;6.998;2023-01-23T18:07:52;16.40;;;11.98;;
35084;SDS011;21267;51.032;6.998;2023-01-23T18:10:33;15.77;;;12.52;;
35084;SDS011;21267;51.032;6.998;2023-01-23T18:13:36;15.90;;;12.25;;